Thunder radar more information blitzortung!


Radar de pluja more information rain snow radar


Visita la nostra xarxa de llocs de meteo:

Template documentation
and downloads

And another site



No particular awareness of the weather is required.    There are no Weather-warnings

Pagina Historial Weather Underground text

Diari Resum Octubre 17, 2017 Unitats:  Imperial    Mètric   Tant
« Previous Dia
SegĂźent Dia »
Diari Setmana Mensual Anual Personalitzada
  Maxima: Minima: Media:
Temperatura: 75.2 °F 55.8 °F 66.4 °F
Punt de rosada: 59.5 °F 52 °F 55.8 °F
Humitat: 90 % 52 % 70 %
Wind Speed: 11.5 mph 0 mph 2.8 mph
RĂ fegues de vent: 11.5 mph - -
Vent:- - South
Pression baro: 30.3 in 30 in -
Precipitacions: 0 in    
Historical Graphs
 
 
Dades de taula per Octubre 17, 2017
Temps Temperatura Punt de rosada Pression baro Vent Wind Speed RĂ fegues de vent Humitat Rainfall Rate (Hourly)
00:00 63.1 °F 55 °F 30.3 in WSW 1.4 mph 1.4 mph 75 % 0 in
00:05 63.3 °F 55.2 °F 30.3 in WSW 1 mph 2 mph 75 % 0 in
00:10 63.3 °F 55.2 °F 30.3 in Calm     75 % 0 in
00:15 63.1 °F 55 °F 30.3 in WSW 1.2 mph 1.2 mph 75 % 0 in
00:20 63 °F 54.9 °F 30.3 in Calm     75 % 0 in
00:25 63 °F 54.9 °F 30.3 in WSW 1.2 mph   75 % 0 in
00:30 63 °F 55.2 °F 30.3 in Calm     76 % 0 in
00:35 63 °F 55.2 °F 30.3 in ENE 1.4 mph 1.4 mph 76 % 0 in
00:40 62.6 °F 54.9 °F 30.3 in ENE 1.2 mph   76 % 0 in
00:45 62.6 °F 54.9 °F 30.3 in Calm     76 % 0 in
00:50 62.2 °F 54.9 °F 30.3 in Calm     77 % 0 in
00:55 57.4 °F 52.5 °F 30.2 in Calm     84 % 0 in
01:05 57.4 °F 52.9 °F 30.2 in Calm     85 % 0 in
01:15 57.2 °F 52.7 °F 30.2 in Calm     85 % 0 in
01:25 57 °F 52.5 °F 30.2 in Calm     85 % 0 in
01:35 57 °F 52.5 °F 30.2 in Calm     85 % 0 in
01:45 56.7 °F 52.2 °F 30.2 in Calm   1 mph 85 % 0 in
02:05 56.7 °F 52.5 °F 30.2 in Calm     86 % 0 in
02:15 56.7 °F 52.5 °F 30.2 in WNW 1 mph 1 mph 86 % 0 in
02:25 56.7 °F 52.5 °F 30.2 in Calm     86 % 0 in
02:35 56.7 °F 52.9 °F 30.2 in Calm     87 % 0 in
02:45 56.5 °F 52.7 °F 30.2 in Calm     87 % 0 in
02:55 56.5 °F 52.7 °F 30.2 in Calm     87 % 0 in
03:05 56.5 °F 53.1 °F 30.2 in Calm     88 % 0 in
03:15 56.5 °F 53.1 °F 30.2 in Calm     88 % 0 in
03:25 55.8 °F 52 °F 30.2 in Calm     87 % 0 in
03:35 56.3 °F 52.9 °F 30.2 in Calm     88 % 0 in
03:45 56.5 °F 53.1 °F 30.2 in Calm   2 mph 88 % 0 in
03:55 57 °F 53.4 °F 30.2 in Calm   2 mph 88 % 0 in
04:05 57.7 °F 54.9 °F 30.2 in Calm     90 % 0 in
04:15 58.3 °F 55 °F 30.2 in Calm   1 mph 89 % 0 in
04:25 59.7 °F 56.5 °F 30.2 in SW 1 mph 2 mph 89 % 0 in
04:35 60.1 °F 56.5 °F 30.2 in SSW 1 mph 2 mph 88 % 0 in
04:45 61.3 °F 57 °F 30.2 in Calm   2 mph 86 % 0 in
04:55 61.5 °F 57 °F 30.2 in Calm   2 mph 85 % 0 in
05:05 61.5 °F 56.7 °F 30.2 in Calm   2 mph 84 % 0 in
05:15 61.7 °F 56.5 °F 30.2 in WSW 1 mph 2 mph 83 % 0 in
05:35 63.1 °F 56.8 °F 30.2 in South 1 mph 2 mph 80 % 0 in
05:45 63.3 °F 56.7 °F 30.2 in SE 1 mph 2 mph 79 % 0 in
05:50 63.7 °F 57 °F 30.2 in Calm     79 % 0 in
10:50 63.9 °F 57.2 °F 30.2 in WNW 2.3 mph   79 % 0 in
10:55 64.4 °F 57.4 °F 30.2 in WSW 2.3 mph 2.3 mph 78 % 0 in
11:00 64.9 °F 57.9 °F 30.2 in ENE 2.2 mph 2.2 mph 78 % 0 in
11:05 65.8 °F 58.5 °F 30.2 in NNW 3.8 mph 3.8 mph 77 % 0 in
11:10 66 °F 58.3 °F 30.2 in NNE 4.6 mph 4.6 mph 76 % 0 in
11:15 67.1 °F 58.8 °F 30.2 in NNE 3.5 mph 3.5 mph 75 % 0 in
11:20 67.8 °F 59.2 °F 30.2 in ENE 4.6 mph 4.6 mph 74 % 0 in
11:25 67.8 °F 58.8 °F 30.2 in North 5.8 mph 5.8 mph 73 % 0 in
11:30 68.4 °F 58.6 °F 30.2 in ENE 5.8 mph 5.8 mph 71 % 0 in
11:35 68.5 °F 58.5 °F 30.2 in NNE 5.8 mph 5.8 mph 70 % 0 in
11:40 68.5 °F 57.9 °F 30.2 in NE 5.8 mph 5.8 mph 69 % 0 in
11:45 68.7 °F 58.1 °F 30.2 in NE 5.8 mph 5.8 mph 69 % 0 in
11:50 68.9 °F 57.9 °F 30.2 in East 4.6 mph 4.6 mph 68 % 0 in
11:55 69.3 °F 58.3 °F 30.2 in ESE 4.6 mph 4.6 mph 68 % 0 in
12:00 70 °F 58.8 °F 30.2 in NNE 4.6 mph 4.6 mph 68 % 0 in
12:05 69.4 °F 57.9 °F 30.2 in ESE 4.6 mph 4.6 mph 67 % 0 in
12:10 70.2 °F 58.6 °F 30.2 in ENE 2.3 mph 2.3 mph 67 % 0 in
12:15 70 °F 58.1 °F 30.2 in ESE 3.5 mph 3.5 mph 66 % 0 in
12:20 69.8 °F 57.9 °F 30.2 in East 3.5 mph 3.5 mph 66 % 0 in
12:21 69.8 °F 57.9 °F 30.2 in East 3.5 mph 3.5 mph 66 % 0 in
12:26 69.4 °F 57.6 °F 30.2 in East 4.9 mph 4.9 mph 66 % 0 in
12:31 70 °F 58.5 °F 30.2 in ENE 4.6 mph 4.6 mph 67 % 0 in
12:36 70 °F 58.1 °F 30.2 in ESE 2.4 mph 2.4 mph 66 % 0 in
12:41 70.7 °F 57.9 °F 30.2 in SSE 3.5 mph 3.5 mph 64 % 0 in
12:46 71.2 °F 58.8 °F 30.2 in South 2.3 mph 2.3 mph 65 % 0 in
12:51 71.1 °F 57.7 °F 30.2 in East 4.6 mph 4.6 mph 63 % 0 in
12:56 71.4 °F 58.3 °F 30.2 in ESE 3.5 mph 3.5 mph 63 % 0 in
13:01 71.6 °F 58.3 °F 30.2 in SW 4.6 mph 4.6 mph 63 % 0 in
13:06 72.7 °F 59.4 °F 30.2 in SE 3.3 mph 3.3 mph 63 % 0 in
13:11 72.3 °F 58.6 °F 30.2 in South 2.3 mph 2.3 mph 62 % 0 in
13:16 72.3 °F 58.6 °F 30.2 in ESE 2.3 mph 2.3 mph 62 % 0 in
13:21 73.4 °F 59.5 °F 30.2 in WSW 3.5 mph 3.5 mph 62 % 0 in
13:26 72.5 °F 58.3 °F 30.2 in East 2.3 mph 2.3 mph 61 % 0 in
13:31 72.1 °F 57.9 °F 30.2 in East 5.4 mph 5.4 mph 61 % 0 in
13:36 72.7 °F 58.8 °F 30.2 in WSW 2.3 mph 2.3 mph 62 % 0 in
13:41 73.4 °F 58.6 °F 30.2 in East 2.6 mph 2.6 mph 60 % 0 in
13:46 73.8 °F 59 °F 30.2 in ESE 2.9 mph   60 % 0 in
13:51 74.1 °F 59.4 °F 30.2 in East 3.5 mph 3.5 mph 60 % 0 in
13:56 73.9 °F 58.3 °F 30.2 in SSW 5.8 mph 5.8 mph 58 % 0 in
14:01 74.1 °F 58.8 °F 30.2 in SW 3.5 mph 3.5 mph 59 % 0 in
14:06 74.1 °F 59.4 °F 30.2 in WSW 4.6 mph 4.6 mph 60 % 0 in
14:11 73.6 °F 58.5 °F 30.2 in WSW 3.5 mph 3.5 mph 59 % 0 in
14:16 73.8 °F 58.5 °F 30.2 in SW 3.3 mph 3.3 mph 59 % 0 in
14:21 73.9 °F 58.6 °F 30.2 in SSW 5.8 mph 5.8 mph 59 % 0 in
14:26 74.1 °F 57.9 °F 30.2 in SSE 2.3 mph 2.3 mph 57 % 0 in
14:31 74.3 °F 58.1 °F 30.2 in WSW 2.4 mph 2.4 mph 57 % 0 in
14:36 73.9 °F 57.4 °F 30.2 in South 3.5 mph 3.5 mph 56 % 0 in
14:41 74.5 °F 57.7 °F 30.2 in ESE 5.6 mph 5.6 mph 56 % 0 in
14:46 73.9 °F 57.7 °F 30.2 in East 3.5 mph 3.5 mph 57 % 0 in
14:51 74.7 °F 57.4 °F 30.2 in South 4.6 mph 4.6 mph 55 % 0 in
14:56 74.7 °F 58.5 °F 30.2 in NW 5.8 mph 5.8 mph 57 % 0 in
14:57 74.5 °F 58.3 °F 30.2 in NNW 4.6 mph 4.6 mph 57 % 0 in
15:02 75.2 °F 57.4 °F 30.2 in SSE 8.1 mph 8.1 mph 54 % 0 in
15:07 74.5 °F 57.4 °F 30.2 in SSE 5.6 mph 5.6 mph 55 % 0 in
15:12 75 °F 57.7 °F 30.1 in ESE 8.1 mph 8.1 mph 55 % 0 in
15:17 74.7 °F 56.8 °F 30.1 in ESE 6 mph 6 mph 54 % 0 in
15:22 74.5 °F 56.7 °F 30.1 in South 6 mph 6 mph 54 % 0 in
15:27 74.5 °F 57.4 °F 30.1 in ESE 5.8 mph 5.8 mph 55 % 0 in
15:32 74.1 °F 56.5 °F 30.1 in ESE 9.2 mph 9.2 mph 54 % 0 in
15:37 74.7 °F 55.9 °F 30.1 in East 4.6 mph 4.6 mph 52 % 0 in
15:42 74.5 °F 56.1 °F 30.1 in ESE 3.5 mph 3.5 mph 53 % 0 in
15:47 74.3 °F 56.1 °F 30.1 in ENE 6.9 mph 6.9 mph 53 % 0 in
15:52 73.8 °F 56.1 °F 30.1 in ESE 9.2 mph 9.2 mph 54 % 0 in
15:57 73.6 °F 55.4 °F 30.1 in SE 8.1 mph 8.1 mph 53 % 0 in
16:02 73.4 °F 55.2 °F 30.1 in ESE 11.5 mph 11.5 mph 53 % 0 in
16:07 73.2 °F 55 °F 30.1 in ESE 6.9 mph 6.9 mph 53 % 0 in
16:12 72.9 °F 55.2 °F 30.1 in ESE 6.9 mph 6.9 mph 54 % 0 in
16:17 73 °F 55.4 °F 30.1 in ENE 10.4 mph 10.4 mph 54 % 0 in
16:22 73.6 °F 55.9 °F 30.1 in ESE 8.1 mph 8.1 mph 54 % 0 in
16:27 73 °F 55.4 °F 30.1 in ENE 8.1 mph 8.1 mph 54 % 0 in
16:32 73.2 °F 55.6 °F 30.1 in ESE 9.2 mph 9.2 mph 54 % 0 in
16:37 73.2 °F 55.6 °F 30.1 in ESE 8.1 mph 8.1 mph 54 % 0 in
16:42 73 °F 55.4 °F 30.1 in ENE 8.1 mph 8.1 mph 54 % 0 in
16:47 72.7 °F 55 °F 30.1 in ENE 8.1 mph 8.1 mph 54 % 0 in
16:52 72.5 °F 54.9 °F 30.1 in East 8.1 mph 8.1 mph 54 % 0 in
16:57 72.3 °F 54.7 °F 30.1 in SE 8.1 mph 8.1 mph 54 % 0 in
17:02 72.5 °F 55.4 °F 30.1 in ESE 10.4 mph 10.4 mph 55 % 0 in
17:07 73.2 °F 56.1 °F 30.1 in SSE 3.5 mph 3.5 mph 55 % 0 in
17:12 74.8 °F 57 °F 30.1 in SSW 4.6 mph 4.6 mph 54 % 0 in
17:17 75 °F 57.2 °F 30.1 in WSW 6.9 mph 6.9 mph 54 % 0 in
17:27 75.2 °F 56.8 °F 30.1 in SSW 7.1 mph 7.1 mph 53 % 0 in
17:32 74.8 °F 57 °F 30.1 in SW 5.9 mph 5.9 mph 54 % 0 in
17:37 74.7 °F 56.5 °F 30.1 in SW 5.8 mph 5.8 mph 53 % 0 in
17:42 75 °F 57.2 °F 30.1 in WSW 6.9 mph 6.9 mph 54 % 0 in
17:47 74.5 °F 56.1 °F 30.1 in WNW 6.9 mph 6.9 mph 53 % 0 in
17:52 74.1 °F 55.9 °F 30.1 in SSE 5.8 mph 5.8 mph 53 % 0 in
17:57 73.9 °F 55.8 °F 30.1 in SSW 3.5 mph 3.6 mph 53 % 0 in
18:02 73.6 °F 55.4 °F 30.1 in WSW 8.1 mph 8.1 mph 53 % 0 in
18:07 73.4 °F 55.2 °F 30.1 in SW 6.9 mph 6.9 mph 53 % 0 in
18:12 73 °F 55.4 °F 30.1 in SW 6 mph 6 mph 54 % 0 in
18:17 72.7 °F 55 °F 30.1 in SSE 6.2 mph 6.2 mph 54 % 0 in
18:22 72.1 °F 55 °F 30.1 in SSW 6.9 mph 6.9 mph 55 % 0 in
18:27 72 °F 55.4 °F 30.1 in SW 3.5 mph 3.5 mph 56 % 0 in
18:32 71.6 °F 55 °F 30.1 in SSW 3.5 mph 3.5 mph 56 % 0 in
18:37 71.4 °F 55.4 °F 30.1 in WSW 3.5 mph 4 mph 57 % 0 in
18:42 70.7 °F 54.7 °F 30.1 in SW 5.8 mph 5.8 mph 57 % 0 in
18:47 70.2 °F 54.7 °F 30.1 in SSW 4.6 mph 4.6 mph 58 % 0 in
18:52 69.8 °F 54.3 °F 30.1 in SSW 5.8 mph 5.8 mph 58 % 0 in
18:57 69.3 °F 54.3 °F 30.1 in SW 5.8 mph 5.8 mph 59 % 0 in
19:02 69.1 °F 54.1 °F 30.1 in SW 5.8 mph 5.8 mph 59 % 0 in
19:07 68.7 °F 54.3 °F 30.1 in South 5.8 mph 5.8 mph 60 % 0 in
19:12 68.5 °F 54.7 °F 30.1 in SW 4.6 mph 4.6 mph 61 % 0 in
19:15 60.6 °F 54.3 °F 30.1 in Calm     80 % 0 in
19:17 68.2 °F 54.1 °F 30.1 in SW 5.8 mph 5.8 mph 61 % 0 in
19:22 68 °F 54.5 °F 30.1 in South 6.4 mph 6.4 mph 62 % 0 in
19:25 60.6 °F 54.3 °F 30.1 in Calm     80 % 0 in
19:27 67.8 °F 54.9 °F 30.1 in WSW 3.5 mph 3.5 mph 63 % 0 in
19:32 67.6 °F 54.7 °F 30.1 in WSW 4.6 mph 4.6 mph 63 % 0 in
19:35 60.6 °F 54.3 °F 30.1 in Calm     80 % 0 in
19:37 67.3 °F 54.7 °F 30.1 in SSW 4.6 mph 4.6 mph 64 % 0 in
19:42 67.1 °F 54.5 °F 30.1 in WSW 3.6 mph 3.6 mph 64 % 0 in
19:45 60.4 °F 54.1 °F 30.1 in Calm     80 % 0 in
19:47 66.9 °F 54.9 °F 30.1 in WSW 4.9 mph 4.9 mph 65 % 0 in
19:52 66.7 °F 55 °F 30.1 in SW 4.3 mph 4.3 mph 66 % 0 in
19:55 60.4 °F 54.7 °F 30.1 in Calm     81 % 0 in
19:57 66.6 °F 54.9 °F 30.1 in WSW 2.4 mph 2.4 mph 66 % 0 in
20:02 66.4 °F 54.7 °F 30.1 in SW 2.6 mph 2.6 mph 66 % 0 in
20:05 60.3 °F 54.3 °F 30.1 in NE 1 mph 3 mph 81 % 0 in
20:07 66.2 °F 54.9 °F 30.1 in SW 3.5 mph 3.5 mph 67 % 0 in
20:12 65.8 °F 55.4 °F 30.1 in SW 2.3 mph 2.3 mph 69 % 0 in
20:15 60.4 °F 54.7 °F 30.1 in NE 2 mph 2 mph 81 % 0 in
20:17 65.7 °F 55.2 °F 30.1 in SW 1.2 mph 1.2 mph 69 % 0 in
20:22 65.5 °F 55 °F 30.1 in SW 2.4 mph 2.4 mph 69 % 0 in
20:25 60.4 °F 54.7 °F 30.1 in NE 2 mph 3 mph 81 % 0 in
20:27 65.5 °F 55.4 °F 30.1 in SW 2.3 mph 2.3 mph 70 % 0 in
20:32 65.3 °F 55.2 °F 30.1 in SW 1.6 mph 1.6 mph 70 % 0 in
20:37 65.1 °F 55.6 °F 30.1 in SW 1.2 mph   71 % 0 in
20:42 64.9 °F 55.2 °F 30.1 in Calm     71 % 0 in
20:45 60.1 °F 54.1 °F 30.1 in NW 1 mph 2 mph 81 % 0 in
20:47 64.8 °F 55.6 °F 30.1 in Calm     72 % 0 in
20:52 64.6 °F 55.2 °F 30.1 in Calm     72 % 0 in
20:55 60.1 °F 54.7 °F 30.1 in Calm   2 mph 82 % 0 in
20:57 64.4 °F 55.2 °F 30.1 in Calm     72 % 0 in
21:02 64.2 °F 55.4 °F 30.1 in Calm     73 % 0 in
21:03 64.2 °F 55.4 °F 30.1 in Calm     73 % 0 in
21:05 60.1 °F 54.7 °F 30.1 in Calm   2 mph 82 % 0 in
21:08 64.2 °F 55.4 °F 30.1 in Calm     73 % 0 in
21:13 64.2 °F 55.4 °F 30.1 in NW 1.4 mph 1.4 mph 73 % 0 in
21:15 60.3 °F 54.7 °F 30.1 in SW 1 mph 1 mph 82 % 0 in
21:18 64.2 °F 55.4 °F 30.1 in NW 1.2 mph   73 % 0 in
21:23 64.2 °F 55.4 °F 30.1 in NW 1.2 mph   73 % 0 in
21:25 60.3 °F 54.7 °F 30.1 in Calm   2 mph 82 % 0 in
21:28 64 °F 55.2 °F 30.1 in Calm     73 % 0 in
21:33 64 °F 55.2 °F 30.1 in NW 1.2 mph   73 % 0 in
21:35 60.3 °F 54.7 °F 30.1 in Calm   2 mph 82 % 0 in
21:38 64 °F 55.6 °F 30.1 in Calm     74 % 0 in
21:43 63.9 °F 55.4 °F 30.1 in NW 1.2 mph   74 % 0 in
21:45 60.4 °F 54.9 °F 30.1 in ENE 1 mph 2 mph 82 % 0 in
21:48 64 °F 55.6 °F 30.1 in NW 1.4 mph 1.4 mph 74 % 0 in
21:53 64 °F 55.6 °F 30.1 in Calm     74 % 0 in
21:55 60.1 °F 54.7 °F 30.1 in Calm   1 mph 82 % 0 in
21:58 64 °F 55.9 °F 30.1 in Calm     75 % 0 in
22:03 64 °F 55.9 °F 30.1 in Calm     75 % 0 in
22:04 64 °F 55.9 °F 30.1 in Calm     75 % 0 in
22:05 59.9 °F 54.1 °F 30.1 in SW 1 mph 2 mph 81 % 0 in
22:09 63.9 °F 55.8 °F 30.1 in NW 1.2 mph   75 % 0 in
22:14 63.9 °F 55.8 °F 30.1 in Calm     75 % 0 in
22:15 59.9 °F 54.3 °F 30.1 in Calm     82 % 0 in
22:19 63.7 °F 55.6 °F 30.1 in Calm     75 % 0 in
22:24 63.5 °F 55.4 °F 30.1 in NW 1.2 mph   75 % 0 in
22:25 60.1 °F 54.7 °F 30.1 in Calm     82 % 0 in
22:29 63 °F 54.9 °F 30.1 in NW 1.2 mph 1.2 mph 75 % 0 in
22:34 62.8 °F 55 °F 30.1 in NW 1.2 mph   76 % 0 in
22:35 60.3 °F 54.7 °F 30.1 in Calm   2 mph 82 % 0 in
22:39 62.8 °F 55 °F 30.1 in Calm     76 % 0 in
22:44 62.8 °F 55 °F 30.1 in Calm     76 % 0 in
22:45 60.1 °F 54.7 °F 30 in Calm   1 mph 82 % 0 in
22:49 62.4 °F 55 °F 30.1 in Calm     77 % 0 in
22:54 62.2 °F 54.9 °F 30.1 in Calm     77 % 0 in
22:55 60.4 °F 55.2 °F 30 in Calm     83 % 0 in
22:59 62.1 °F 54.9 °F 30.1 in Calm     77 % 0 in
23:04 61.9 °F 54.7 °F 30.1 in West 1.4 mph   77 % 0 in
23:05 60.8 °F 55.2 °F 30 in WNW 1 mph 1 mph 82 % 0 in
23:09 61.7 °F 54.3 °F 30.1 in Calm     77 % 0 in
23:14 61.7 °F 54.9 °F 30.1 in Calm     78 % 0 in
23:15 60.6 °F 55 °F 30.1 in NE 1 mph 3 mph 82 % 0 in
23:19 61.5 °F 54.7 °F 30.1 in Calm     78 % 0 in
23:24 61.5 °F 54.9 °F 30.1 in Calm     79 % 0 in
23:25 60.8 °F 55.2 °F 30.1 in Calm   1 mph 82 % 0 in
23:29 61.3 °F 54.9 °F 30.1 in NE 1.2 mph   79 % 0 in
23:34 61.2 °F 54.7 °F 30.1 in Calm     79 % 0 in
23:35 60.8 °F 55.2 °F 30.1 in North 1 mph 2 mph 82 % 0 in
23:39 61.2 °F 54.7 °F 30.1 in Calm     79 % 0 in
23:44 61 °F 54.3 °F 30.1 in Calm     79 % 0 in
23:45 60.8 °F 55.2 °F 30 in NNE 3 mph 4 mph 82 % 0 in
23:49 61 °F 54.3 °F 30.1 in Calm     79 % 0 in
23:54 61 °F 54.3 °F 30.1 in Calm     79 % 0 in
23:55 61 °F 55.4 °F 30 in NE 1 mph 3 mph 82 % 0 in
23:59 60.8 °F 54.1 °F 30.1 in Calm     79 % 0 in
Meteo Sesrovires
Elogis d' Weather Underground - 3.75 mb

Guio original per  Jim McMurry - jmcmurry@mwt.net Adaptat per a la plantilla per  Wim van der Kuil - Leuven-Template.eu

Trobareu la nostra informacio del temps tambe a:

Weather Underground

AWEKAS